sensor_id;sensor_type;location;lat;lon;timestamp;temperature;humidity
3816;DHT22;1923;48.154;11.536;2022-12-29T00:01:16;6.50;99.90
3816;DHT22;1923;48.154;11.536;2022-12-29T00:03:45;6.60;99.90
3816;DHT22;1923;48.154;11.536;2022-12-29T00:06:14;6.60;99.90
3816;DHT22;1923;48.154;11.536;2022-12-29T00:08:42;6.60;99.90
3816;DHT22;1923;48.154;11.536;2022-12-29T00:11:12;6.60;99.90
3816;DHT22;1923;48.154;11.536;2022-12-29T00:13:42;6.70;99.90
3816;DHT22;1923;48.154;11.536;2022-12-29T00:16:28;6.90;99.90
3816;DHT22;1923;48.154;11.536;2022-12-29T00:18:57;6.80;99.90
3816;DHT22;1923;48.154;11.536;2022-12-29T00:21:25;6.80;99.90
3816;DHT22;1923;48.154;11.536;2022-12-29T00:24:13;6.80;99.90
3816;DHT22;1923;48.154;11.536;2022-12-29T00:27:10;6.80;99.90
3816;DHT22;1923;48.154;11.536;2022-12-29T00:29:57;6.80;99.90
3816;DHT22;1923;48.154;11.536;2022-12-29T00:32:43;6.80;99.90
3816;DHT22;1923;48.154;11.536;2022-12-29T00:35:31;6.70;99.90
3816;DHT22;1923;48.154;11.536;2022-12-29T00:38:03;6.70;99.90
3816;DHT22;1923;48.154;11.536;2022-12-29T00:40:49;6.70;99.90
3816;DHT22;1923;48.154;11.536;2022-12-29T00:43:46;6.70;99.90
3816;DHT22;1923;48.154;11.536;2022-12-29T00:46:35;6.60;99.90
3816;DHT22;1923;48.154;11.536;2022-12-29T00:49:04;6.70;99.90
3816;DHT22;1923;48.154;11.536;2022-12-29T00:51:50;6.70;99.90
3816;DHT22;1923;48.154;11.536;2022-12-29T00:54:19;6.60;99.90
3816;DHT22;1923;48.154;11.536;2022-12-29T00:56:48;6.60;99.90
3816;DHT22;1923;48.154;11.536;2022-12-29T00:59:17;6.60;99.90
3816;DHT22;1923;48.154;11.536;2022-12-29T01:01:47;6.60;99.90
3816;DHT22;1923;48.154;11.536;2022-12-29T01:04:15;6.50;99.90
3816;DHT22;1923;48.154;11.536;2022-12-29T01:06:44;6.50;99.90
3816;DHT22;1923;48.154;11.536;2022-12-29T01:09:12;6.50;99.90
3816;DHT22;1923;48.154;11.536;2022-12-29T01:12:08;6.50;99.90
3816;DHT22;1923;48.154;11.536;2022-12-29T01:14:37;6.40;99.90
3816;DHT22;1923;48.154;11.536;2022-12-29T01:17:06;6.40;99.90
3816;DHT22;1923;48.154;11.536;2022-12-29T01:19:34;6.40;99.90
3816;DHT22;1923;48.154;11.536;2022-12-29T01:22:03;6.30;99.90
3816;DHT22;1923;48.154;11.536;2022-12-29T01:24:31;6.30;99.90
3816;DHT22;1923;48.154;11.536;2022-12-29T01:26:59;6.30;99.90
3816;DHT22;1923;48.154;11.536;2022-12-29T01:29:27;6.40;99.90
3816;DHT22;1923;48.154;11.536;2022-12-29T01:31:55;6.50;99.90
3816;DHT22;1923;48.154;11.536;2022-12-29T01:34:25;6.60;99.90
3816;DHT22;1923;48.154;11.536;2022-12-29T01:36:53;6.60;99.90
3816;DHT22;1923;48.154;11.536;2022-12-29T01:39:21;6.50;99.90
3816;DHT22;1923;48.154;11.536;2022-12-29T01:41:49;6.70;99.90
3816;DHT22;1923;48.154;11.536;2022-12-29T01:44:50;6.70;99.90
3816;DHT22;1923;48.154;11.536;2022-12-29T01:47:27;6.70;99.90
3816;DHT22;1923;48.154;11.536;2022-12-29T01:50:00;6.60;99.90
3816;DHT22;1923;48.154;11.536;2022-12-29T01:52:31;6.60;99.90
3816;DHT22;1923;48.154;11.536;2022-12-29T01:55:01;6.60;99.90
3816;DHT22;1923;48.154;11.536;2022-12-29T01:57:33;6.70;99.90
3816;DHT22;1923;48.154;11.536;2022-12-29T02:00:05;6.80;99.90
3816;DHT22;1923;48.154;11.536;2022-12-29T02:02:34;6.80;99.90
3816;DHT22;1923;48.154;11.536;2022-12-29T02:05:10;6.70;99.90
3816;DHT22;1923;48.154;11.536;2022-12-29T02:07:39;6.70;99.90
3816;DHT22;1923;48.154;11.536;2022-12-29T02:10:08;6.60;99.90
3816;DHT22;1923;48.154;11.536;2022-12-29T02:12:36;6.60;99.90
3816;DHT22;1923;48.154;11.536;2022-12-29T02:15:06;6.60;99.90
3816;DHT22;1923;48.154;11.536;2022-12-29T02:17:45;6.60;99.90
3816;DHT22;1923;48.154;11.536;2022-12-29T02:20:43;6.70;99.90
3816;DHT22;1923;48.154;11.536;2022-12-29T02:23:36;6.70;99.90
3816;DHT22;1923;48.154;11.536;2022-12-29T02:26:46;6.70;99.90
3816;DHT22;1923;48.154;11.536;2022-12-29T02:29:40;6.70;99.90
3816;DHT22;1923;48.154;11.536;2022-12-29T02:32:18;6.70;99.90
3816;DHT22;1923;48.154;11.536;2022-12-29T02:34:56;6.80;99.90
3816;DHT22;1923;48.154;11.536;2022-12-29T02:37:28;6.80;99.90
3816;DHT22;1923;48.154;11.536;2022-12-29T02:40:05;6.80;99.90
3816;DHT22;1923;48.154;11.536;2022-12-29T02:42:38;6.70;99.90
3816;DHT22;1923;48.154;11.536;2022-12-29T02:45:15;6.80;99.90
3816;DHT22;1923;48.154;11.536;2022-12-29T02:47:48;6.90;99.90
3816;DHT22;1923;48.154;11.536;2022-12-29T02:50:22;7.00;99.90
3816;DHT22;1923;48.154;11.536;2022-12-29T02:52:52;7.00;99.90
3816;DHT22;1923;48.154;11.536;2022-12-29T02:55:22;7.00;99.90
3816;DHT22;1923;48.154;11.536;2022-12-29T02:58:02;7.00;99.90
3816;DHT22;1923;48.154;11.536;2022-12-29T03:00:33;7.00;99.90
3816;DHT22;1923;48.154;11.536;2022-12-29T03:03:17;7.10;99.90
3816;DHT22;1923;48.154;11.536;2022-12-29T03:06:05;7.10;99.90
3816;DHT22;1923;48.154;11.536;2022-12-29T03:08:44;7.20;99.90
3816;DHT22;1923;48.154;11.536;2022-12-29T03:11:16;7.20;99.90
3816;DHT22;1923;48.154;11.536;2022-12-29T03:14:06;7.30;99.90
3816;DHT22;1923;48.154;11.536;2022-12-29T03:16:56;7.30;99.90
3816;DHT22;1923;48.154;11.536;2022-12-29T03:19:30;7.40;99.90
3816;DHT22;1923;48.154;11.536;2022-12-29T03:22:01;7.40;99.90
3816;DHT22;1923;48.154;11.536;2022-12-29T03:24:53;7.40;99.90
3816;DHT22;1923;48.154;11.536;2022-12-29T03:27:25;7.50;99.90
3816;DHT22;1923;48.154;11.536;2022-12-29T03:29:57;7.50;99.90
3816;DHT22;1923;48.154;11.536;2022-12-29T03:32:31;7.60;99.90
3816;DHT22;1923;48.154;11.536;2022-12-29T03:35:02;7.60;99.90
3816;DHT22;1923;48.154;11.536;2022-12-29T03:37:35;7.70;99.90
3816;DHT22;1923;48.154;11.536;2022-12-29T03:40:05;7.80;99.90
3816;DHT22;1923;48.154;11.536;2022-12-29T03:42:35;7.80;99.90
3816;DHT22;1923;48.154;11.536;2022-12-29T03:45:05;7.80;99.90
3816;DHT22;1923;48.154;11.536;2022-12-29T03:47:34;7.90;99.90
3816;DHT22;1923;48.154;11.536;2022-12-29T03:50:04;7.90;99.90
3816;DHT22;1923;48.154;11.536;2022-12-29T03:52:33;8.00;99.90
3816;DHT22;1923;48.154;11.536;2022-12-29T03:55:01;7.90;99.90
3816;DHT22;1923;48.154;11.536;2022-12-29T03:57:29;8.00;99.90
3816;DHT22;1923;48.154;11.536;2022-12-29T03:59:57;8.10;99.90
3816;DHT22;1923;48.154;11.536;2022-12-29T04:02:25;8.10;99.90
3816;DHT22;1923;48.154;11.536;2022-12-29T04:04:53;8.10;99.90
3816;DHT22;1923;48.154;11.536;2022-12-29T04:07:23;8.10;99.90
3816;DHT22;1923;48.154;11.536;2022-12-29T04:09:51;8.00;99.90
3816;DHT22;1923;48.154;11.536;2022-12-29T04:12:19;8.00;99.90
3816;DHT22;1923;48.154;11.536;2022-12-29T04:14:47;8.10;99.90
3816;DHT22;1923;48.154;11.536;2022-12-29T04:17:15;8.20;99.90
3816;DHT22;1923;48.154;11.536;2022-12-29T04:19:44;8.20;99.90
3816;DHT22;1923;48.154;11.536;2022-12-29T04:22:12;8.10;99.90
3816;DHT22;1923;48.154;11.536;2022-12-29T04:24:41;8.20;99.90
3816;DHT22;1923;48.154;11.536;2022-12-29T04:27:09;8.20;99.90
3816;DHT22;1923;48.154;11.536;2022-12-29T04:29:37;8.20;99.90
3816;DHT22;1923;48.154;11.536;2022-12-29T04:32:05;8.20;99.90
3816;DHT22;1923;48.154;11.536;2022-12-29T04:34:33;8.30;99.90
3816;DHT22;1923;48.154;11.536;2022-12-29T04:37:01;8.20;99.90
3816;DHT22;1923;48.154;11.536;2022-12-29T04:39:29;8.30;99.90
3816;DHT22;1923;48.154;11.536;2022-12-29T04:41:58;8.30;99.90
3816;DHT22;1923;48.154;11.536;2022-12-29T04:44:26;8.30;99.90
3816;DHT22;1923;48.154;11.536;2022-12-29T04:46:55;8.30;99.90
3816;DHT22;1923;48.154;11.536;2022-12-29T04:49:23;8.30;99.90
3816;DHT22;1923;48.154;11.536;2022-12-29T04:51:51;8.30;99.90
3816;DHT22;1923;48.154;11.536;2022-12-29T04:54:19;8.40;99.90
3816;DHT22;1923;48.154;11.536;2022-12-29T04:56:47;8.40;99.90
3816;DHT22;1923;48.154;11.536;2022-12-29T04:59:16;8.30;99.90
3816;DHT22;1923;48.154;11.536;2022-12-29T05:01:44;8.40;99.90
3816;DHT22;1923;48.154;11.536;2022-12-29T05:04:12;8.40;99.90
3816;DHT22;1923;48.154;11.536;2022-12-29T05:06:40;8.30;99.90
3816;DHT22;1923;48.154;11.536;2022-12-29T05:09:08;8.40;99.90
3816;DHT22;1923;48.154;11.536;2022-12-29T05:11:36;8.40;99.90
3816;DHT22;1923;48.154;11.536;2022-12-29T05:14:04;8.40;99.90
3816;DHT22;1923;48.154;11.536;2022-12-29T05:16:34;8.40;99.90
3816;DHT22;1923;48.154;11.536;2022-12-29T05:19:02;8.40;99.90
3816;DHT22;1923;48.154;11.536;2022-12-29T05:21:30;8.30;99.90
3816;DHT22;1923;48.154;11.536;2022-12-29T05:23:59;8.30;99.90
3816;DHT22;1923;48.154;11.536;2022-12-29T05:26:27;8.30;99.90
3816;DHT22;1923;48.154;11.536;2022-12-29T05:28:55;8.40;99.90
3816;DHT22;1923;48.154;11.536;2022-12-29T05:31:23;8.40;99.90
3816;DHT22;1923;48.154;11.536;2022-12-29T05:33:52;8.40;99.90
3816;DHT22;1923;48.154;11.536;2022-12-29T05:36:20;8.40;99.90
3816;DHT22;1923;48.154;11.536;2022-12-29T05:38:48;8.40;99.90
3816;DHT22;1923;48.154;11.536;2022-12-29T05:41:16;8.50;99.90
3816;DHT22;1923;48.154;11.536;2022-12-29T05:43:44;8.50;99.90
3816;DHT22;1923;48.154;11.536;2022-12-29T05:46:12;8.50;99.90
3816;DHT22;1923;48.154;11.536;2022-12-29T05:48:40;8.50;99.90
3816;DHT22;1923;48.154;11.536;2022-12-29T05:51:10;8.50;99.90
3816;DHT22;1923;48.154;11.536;2022-12-29T05:53:38;8.50;99.90
3816;DHT22;1923;48.154;11.536;2022-12-29T05:56:06;8.50;99.90
3816;DHT22;1923;48.154;11.536;2022-12-29T05:58:34;8.50;99.90
3816;DHT22;1923;48.154;11.536;2022-12-29T06:01:02;8.50;99.90
3816;DHT22;1923;48.154;11.536;2022-12-29T06:03:31;8.40;99.90
3816;DHT22;1923;48.154;11.536;2022-12-29T06:05:59;8.50;99.90
3816;DHT22;1923;48.154;11.536;2022-12-29T06:08:28;8.40;99.90
3816;DHT22;1923;48.154;11.536;2022-12-29T06:10:56;8.50;99.90
3816;DHT22;1923;48.154;11.536;2022-12-29T06:13:24;8.50;99.90
3816;DHT22;1923;48.154;11.536;2022-12-29T06:15:52;8.60;99.90
3816;DHT22;1923;48.154;11.536;2022-12-29T06:18:20;8.60;99.90
3816;DHT22;1923;48.154;11.536;2022-12-29T06:20:48;8.60;99.90
3816;DHT22;1923;48.154;11.536;2022-12-29T06:23:16;8.60;99.90
3816;DHT22;1923;48.154;11.536;2022-12-29T06:25:47;8.60;99.90
3816;DHT22;1923;48.154;11.536;2022-12-29T06:28:16;8.60;99.90
3816;DHT22;1923;48.154;11.536;2022-12-29T06:30:44;8.70;99.90
3816;DHT22;1923;48.154;11.536;2022-12-29T06:33:13;8.70;99.90
3816;DHT22;1923;48.154;11.536;2022-12-29T06:35:42;8.70;99.90
3816;DHT22;1923;48.154;11.536;2022-12-29T06:38:10;8.70;99.90
3816;DHT22;1923;48.154;11.536;2022-12-29T06:40:38;8.70;99.90
3816;DHT22;1923;48.154;11.536;2022-12-29T06:43:09;8.70;99.90
3816;DHT22;1923;48.154;11.536;2022-12-29T06:45:37;8.70;99.90
3816;DHT22;1923;48.154;11.536;2022-12-29T06:48:06;8.70;99.90
3816;DHT22;1923;48.154;11.536;2022-12-29T06:50:35;8.70;99.90
3816;DHT22;1923;48.154;11.536;2022-12-29T06:53:03;8.60;99.90
3816;DHT22;1923;48.154;11.536;2022-12-29T06:55:31;8.60;99.90
3816;DHT22;1923;48.154;11.536;2022-12-29T06:57:59;8.60;99.90
3816;DHT22;1923;48.154;11.536;2022-12-29T07:00:30;8.50;99.90
3816;DHT22;1923;48.154;11.536;2022-12-29T07:02:57;8.50;99.90
3816;DHT22;1923;48.154;11.536;2022-12-29T07:05:26;8.50;99.90
3816;DHT22;1923;48.154;11.536;2022-12-29T07:07:55;8.50;99.90
3816;DHT22;1923;48.154;11.536;2022-12-29T07:10:23;8.50;99.90
3816;DHT22;1923;48.154;11.536;2022-12-29T07:12:51;8.50;99.90
3816;DHT22;1923;48.154;11.536;2022-12-29T07:15:19;8.50;99.90
3816;DHT22;1923;48.154;11.536;2022-12-29T07:17:48;8.40;99.90
3816;DHT22;1923;48.154;11.536;2022-12-29T07:20:17;8.40;99.90
3816;DHT22;1923;48.154;11.536;2022-12-29T07:22:52;8.50;99.90
3816;DHT22;1923;48.154;11.536;2022-12-29T07:25:20;8.50;99.90
3816;DHT22;1923;48.154;11.536;2022-12-29T07:27:49;8.40;99.90
3816;DHT22;1923;48.154;11.536;2022-12-29T07:30:17;8.40;99.90
3816;DHT22;1923;48.154;11.536;2022-12-29T07:32:45;8.50;99.90
3816;DHT22;1923;48.154;11.536;2022-12-29T07:35:14;8.50;99.90
3816;DHT22;1923;48.154;11.536;2022-12-29T07:37:43;8.50;99.90
3816;DHT22;1923;48.154;11.536;2022-12-29T07:40:11;8.50;99.90
3816;DHT22;1923;48.154;11.536;2022-12-29T07:42:39;8.60;99.90
3816;DHT22;1923;48.154;11.536;2022-12-29T07:45:09;8.50;99.90
3816;DHT22;1923;48.154;11.536;2022-12-29T07:47:37;8.60;99.90
3816;DHT22;1923;48.154;11.536;2022-12-29T07:50:06;8.60;99.90
3816;DHT22;1923;48.154;11.536;2022-12-29T07:52:35;8.60;99.90
3816;DHT22;1923;48.154;11.536;2022-12-29T07:55:04;8.70;99.90
3816;DHT22;1923;48.154;11.536;2022-12-29T07:57:32;8.70;99.90
3816;DHT22;1923;48.154;11.536;2022-12-29T08:00:00;9.00;99.90
3816;DHT22;1923;48.154;11.536;2022-12-29T08:02:29;9.40;99.90
3816;DHT22;1923;48.154;11.536;2022-12-29T08:04:57;9.80;99.90
3816;DHT22;1923;48.154;11.536;2022-12-29T08:07:25;10.40;99.70
3816;DHT22;1923;48.154;11.536;2022-12-29T08:09:54;10.70;99.30
3816;DHT22;1923;48.154;11.536;2022-12-29T08:12:22;11.00;98.40
3816;DHT22;1923;48.154;11.536;2022-12-29T08:14:50;11.20;97.90
3816;DHT22;1923;48.154;11.536;2022-12-29T08:17:18;11.50;97.50
3816;DHT22;1923;48.154;11.536;2022-12-29T08:19:46;11.50;97.20
3816;DHT22;1923;48.154;11.536;2022-12-29T08:22:15;11.50;97.30
3816;DHT22;1923;48.154;11.536;2022-12-29T08:24:43;11.60;96.70
3816;DHT22;1923;48.154;11.536;2022-12-29T08:27:12;11.60;96.80
3816;DHT22;1923;48.154;11.536;2022-12-29T08:29:46;11.50;96.90
3816;DHT22;1923;48.154;11.536;2022-12-29T08:32:15;11.30;96.90
3816;DHT22;1923;48.154;11.536;2022-12-29T08:34:43;11.30;97.00
3816;DHT22;1923;48.154;11.536;2022-12-29T08:37:11;11.30;96.90
3816;DHT22;1923;48.154;11.536;2022-12-29T08:39:39;11.30;97.00
3816;DHT22;1923;48.154;11.536;2022-12-29T08:42:07;11.40;97.10
3816;DHT22;1923;48.154;11.536;2022-12-29T08:44:37;11.50;97.00
3816;DHT22;1923;48.154;11.536;2022-12-29T08:47:05;11.90;96.40
3816;DHT22;1923;48.154;11.536;2022-12-29T08:49:33;11.90;95.90
3816;DHT22;1923;48.154;11.536;2022-12-29T08:52:01;11.90;96.10
3816;DHT22;1923;48.154;11.536;2022-12-29T08:54:29;11.80;96.30
3816;DHT22;1923;48.154;11.536;2022-12-29T08:56:57;11.70;96.10
3816;DHT22;1923;48.154;11.536;2022-12-29T08:59:25;11.50;96.10
3816;DHT22;1923;48.154;11.536;2022-12-29T09:01:55;11.50;96.00
3816;DHT22;1923;48.154;11.536;2022-12-29T09:04:24;11.40;96.00
3816;DHT22;1923;48.154;11.536;2022-12-29T09:06:54;11.40;95.90
3816;DHT22;1923;48.154;11.536;2022-12-29T09:09:22;11.40;95.70
3816;DHT22;1923;48.154;11.536;2022-12-29T09:11:50;11.50;95.90
3816;DHT22;1923;48.154;11.536;2022-12-29T09:14:18;12.00;95.30
3816;DHT22;1923;48.154;11.536;2022-12-29T09:16:50;12.40;94.80
3816;DHT22;1923;48.154;11.536;2022-12-29T09:19:37;12.70;94.40
3816;DHT22;1923;48.154;11.536;2022-12-29T09:22:05;12.70;94.30
3816;DHT22;1923;48.154;11.536;2022-12-29T09:24:33;12.70;94.40
3816;DHT22;1923;48.154;11.536;2022-12-29T09:27:01;12.70;94.10
3816;DHT22;1923;48.154;11.536;2022-12-29T09:29:29;12.70;94.50
3816;DHT22;1923;48.154;11.536;2022-12-29T09:31:57;12.60;94.50
3816;DHT22;1923;48.154;11.536;2022-12-29T09:34:25;12.60;94.50
3816;DHT22;1923;48.154;11.536;2022-12-29T09:36:55;12.60;94.50
3816;DHT22;1923;48.154;11.536;2022-12-29T09:39:24;12.70;94.30
3816;DHT22;1923;48.154;11.536;2022-12-29T09:41:58;12.90;94.40
3816;DHT22;1923;48.154;11.536;2022-12-29T09:44:41;13.00;93.60
3816;DHT22;1923;48.154;11.536;2022-12-29T09:47:14;13.00;93.70
3816;DHT22;1923;48.154;11.536;2022-12-29T09:49:46;13.10;93.70
3816;DHT22;1923;48.154;11.536;2022-12-29T09:52:20;13.00;93.30
3816;DHT22;1923;48.154;11.536;2022-12-29T09:54:54;12.90;93.50
3816;DHT22;1923;48.154;11.536;2022-12-29T09:57:32;12.90;94.00
3816;DHT22;1923;48.154;11.536;2022-12-29T10:00:05;12.90;93.70
3816;DHT22;1923;48.154;11.536;2022-12-29T10:02:38;12.90;93.80
3816;DHT22;1923;48.154;11.536;2022-12-29T10:05:22;12.80;93.60
3816;DHT22;1923;48.154;11.536;2022-12-29T10:08:05;12.80;94.20
3816;DHT22;1923;48.154;11.536;2022-12-29T10:10:47;12.70;94.00
3816;DHT22;1923;48.154;11.536;2022-12-29T10:13:27;12.60;94.30
3816;DHT22;1923;48.154;11.536;2022-12-29T10:16:02;12.50;94.20
3816;DHT22;1923;48.154;11.536;2022-12-29T10:18:57;12.50;93.90
3816;DHT22;1923;48.154;11.536;2022-12-29T10:21:35;12.40;94.00
3816;DHT22;1923;48.154;11.536;2022-12-29T10:24:11;12.50;94.20
3816;DHT22;1923;48.154;11.536;2022-12-29T10:26:41;12.60;93.30
3816;DHT22;1923;48.154;11.536;2022-12-29T10:29:15;12.60;93.50
3816;DHT22;1923;48.154;11.536;2022-12-29T10:31:48;12.60;94.00
3816;DHT22;1923;48.154;11.536;2022-12-29T10:34:21;12.70;93.60
3816;DHT22;1923;48.154;11.536;2022-12-29T10:36:53;12.70;93.60
3816;DHT22;1923;48.154;11.536;2022-12-29T10:39:30;12.80;93.40
3816;DHT22;1923;48.154;11.536;2022-12-29T10:42:07;12.70;93.60
3816;DHT22;1923;48.154;11.536;2022-12-29T10:44:36;12.90;93.30
3816;DHT22;1923;48.154;11.536;2022-12-29T10:47:07;13.20;93.10
3816;DHT22;1923;48.154;11.536;2022-12-29T10:49:41;13.40;93.20
3816;DHT22;1923;48.154;11.536;2022-12-29T10:52:10;13.40;92.50
3816;DHT22;1923;48.154;11.536;2022-12-29T10:54:46;13.50;92.90
3816;DHT22;1923;48.154;11.536;2022-12-29T10:57:25;13.50;92.70
3816;DHT22;1923;48.154;11.536;2022-12-29T10:59:55;13.60;92.60
3816;DHT22;1923;48.154;11.536;2022-12-29T11:02:45;13.70;92.50
3816;DHT22;1923;48.154;11.536;2022-12-29T11:05:22;13.90;92.50
3816;DHT22;1923;48.154;11.536;2022-12-29T11:07:54;14.20;91.80
3816;DHT22;1923;48.154;11.536;2022-12-29T11:10:36;14.40;91.60
3816;DHT22;1923;48.154;11.536;2022-12-29T11:13:12;14.60;91.20
3816;DHT22;1923;48.154;11.536;2022-12-29T11:15:41;15.20;91.00
3816;DHT22;1923;48.154;11.536;2022-12-29T11:18:19;15.70;90.40
3816;DHT22;1923;48.154;11.536;2022-12-29T11:20:50;16.30;90.00
3816;DHT22;1923;48.154;11.536;2022-12-29T11:23:24;17.20;88.70
3816;DHT22;1923;48.154;11.536;2022-12-29T11:26:16;18.30;84.10
3816;DHT22;1923;48.154;11.536;2022-12-29T11:28:45;18.20;82.40
3816;DHT22;1923;48.154;11.536;2022-12-29T11:31:17;17.70;83.00
3816;DHT22;1923;48.154;11.536;2022-12-29T11:33:47;17.20;82.60
3816;DHT22;1923;48.154;11.536;2022-12-29T11:36:17;16.80;84.00
3816;DHT22;1923;48.154;11.536;2022-12-29T11:38:49;16.60;84.20
3816;DHT22;1923;48.154;11.536;2022-12-29T11:41:23;16.30;84.60
3816;DHT22;1923;48.154;11.536;2022-12-29T11:43:53;16.10;84.80
3816;DHT22;1923;48.154;11.536;2022-12-29T11:46:54;15.90;84.70
3816;DHT22;1923;48.154;11.536;2022-12-29T11:49:24;15.60;82.90
3816;DHT22;1923;48.154;11.536;2022-12-29T11:51:53;15.40;83.30
3816;DHT22;1923;48.154;11.536;2022-12-29T11:54:27;15.40;83.10
3816;DHT22;1923;48.154;11.536;2022-12-29T11:56:58;15.40;84.60
3816;DHT22;1923;48.154;11.536;2022-12-29T11:59:50;15.30;82.70
3816;DHT22;1923;48.154;11.536;2022-12-29T12:02:35;15.10;82.60
3816;DHT22;1923;48.154;11.536;2022-12-29T12:05:22;15.00;82.10
3816;DHT22;1923;48.154;11.536;2022-12-29T12:07:57;14.90;84.20
3816;DHT22;1923;48.154;11.536;2022-12-29T12:10:29;14.80;82.60
3816;DHT22;1923;48.154;11.536;2022-12-29T12:13:08;14.60;83.70
3816;DHT22;1923;48.154;11.536;2022-12-29T12:15:42;14.50;84.60
3816;DHT22;1923;48.154;11.536;2022-12-29T12:18:21;14.40;84.50
3816;DHT22;1923;48.154;11.536;2022-12-29T12:20:54;14.40;84.60
3816;DHT22;1923;48.154;11.536;2022-12-29T12:23:36;14.30;85.10
3816;DHT22;1923;48.154;11.536;2022-12-29T12:26:11;14.20;85.80
3816;DHT22;1923;48.154;11.536;2022-12-29T12:28:48;14.10;85.40
3816;DHT22;1923;48.154;11.536;2022-12-29T12:31:26;14.10;85.70
3816;DHT22;1923;48.154;11.536;2022-12-29T12:33:59;14.20;86.80
3816;DHT22;1923;48.154;11.536;2022-12-29T12:36:43;14.30;86.80
3816;DHT22;1923;48.154;11.536;2022-12-29T12:39:25;14.20;87.10
3816;DHT22;1923;48.154;11.536;2022-12-29T12:42:03;14.20;88.80
3816;DHT22;1923;48.154;11.536;2022-12-29T12:44:44;14.20;90.10
3816;DHT22;1923;48.154;11.536;2022-12-29T12:47:33;14.10;89.30
3816;DHT22;1923;48.154;11.536;2022-12-29T12:50:22;14.10;90.40
3816;DHT22;1923;48.154;11.536;2022-12-29T12:53:07;14.10;90.50
3816;DHT22;1923;48.154;11.536;2022-12-29T12:56:01;14.00;91.00
3816;DHT22;1923;48.154;11.536;2022-12-29T12:58:36;14.10;91.30
3816;DHT22;1923;48.154;11.536;2022-12-29T13:01:18;14.10;91.70
3816;DHT22;1923;48.154;11.536;2022-12-29T13:04:05;14.00;91.70
3816;DHT22;1923;48.154;11.536;2022-12-29T13:06:41;14.10;92.40
3816;DHT22;1923;48.154;11.536;2022-12-29T13:09:31;14.10;92.40
3816;DHT22;1923;48.154;11.536;2022-12-29T13:12:12;14.10;92.40
3816;DHT22;1923;48.154;11.536;2022-12-29T13:14:50;14.20;92.60
3816;DHT22;1923;48.154;11.536;2022-12-29T13:17:30;14.30;92.70
3816;DHT22;1923;48.154;11.536;2022-12-29T13:20:06;14.30;92.90
3816;DHT22;1923;48.154;11.536;2022-12-29T13:22:46;14.30;92.90
3816;DHT22;1923;48.154;11.536;2022-12-29T13:25:24;14.40;93.10
3816;DHT22;1923;48.154;11.536;2022-12-29T13:27:59;14.30;93.10
3816;DHT22;1923;48.154;11.536;2022-12-29T13:30:31;14.30;93.50
3816;DHT22;1923;48.154;11.536;2022-12-29T13:33:12;14.40;93.10
3816;DHT22;1923;48.154;11.536;2022-12-29T13:35:55;14.40;93.20
3816;DHT22;1923;48.154;11.536;2022-12-29T13:38:29;14.40;93.50
3816;DHT22;1923;48.154;11.536;2022-12-29T13:41:02;14.30;93.80
3816;DHT22;1923;48.154;11.536;2022-12-29T13:43:34;14.40;94.00
3816;DHT22;1923;48.154;11.536;2022-12-29T13:46:06;14.40;94.10
3816;DHT22;1923;48.154;11.536;2022-12-29T13:48:42;14.30;94.20
3816;DHT22;1923;48.154;11.536;2022-12-29T13:51:11;14.30;94.60
3816;DHT22;1923;48.154;11.536;2022-12-29T13:53:53;14.30;94.60
3816;DHT22;1923;48.154;11.536;2022-12-29T13:56:25;14.20;94.60
3816;DHT22;1923;48.154;11.536;2022-12-29T13:59:01;14.20;94.70
3816;DHT22;1923;48.154;11.536;2022-12-29T14:01:35;14.20;95.00
3816;DHT22;1923;48.154;11.536;2022-12-29T14:04:13;14.20;94.70
3816;DHT22;1923;48.154;11.536;2022-12-29T14:06:41;14.10;94.80
3816;DHT22;1923;48.154;11.536;2022-12-29T14:09:39;14.10;95.30
3816;DHT22;1923;48.154;11.536;2022-12-29T14:12:31;14.10;95.10
3816;DHT22;1923;48.154;11.536;2022-12-29T14:15:06;14.10;95.40
3816;DHT22;1923;48.154;11.536;2022-12-29T14:17:43;14.00;95.70
3816;DHT22;1923;48.154;11.536;2022-12-29T14:20:20;14.00;95.80
3816;DHT22;1923;48.154;11.536;2022-12-29T14:23:00;14.00;96.10
3816;DHT22;1923;48.154;11.536;2022-12-29T14:25:56;14.00;96.00
3816;DHT22;1923;48.154;11.536;2022-12-29T14:28:26;14.00;96.10
3816;DHT22;1923;48.154;11.536;2022-12-29T14:30:56;13.90;96.50
3816;DHT22;1923;48.154;11.536;2022-12-29T14:33:27;13.90;96.40
3816;DHT22;1923;48.154;11.536;2022-12-29T14:35:57;13.80;96.50
3816;DHT22;1923;48.154;11.536;2022-12-29T14:38:46;13.80;96.90
3816;DHT22;1923;48.154;11.536;2022-12-29T14:41:24;13.70;96.90
3816;DHT22;1923;48.154;11.536;2022-12-29T14:43:57;13.70;97.00
3816;DHT22;1923;48.154;11.536;2022-12-29T14:46:44;13.70;97.30
3816;DHT22;1923;48.154;11.536;2022-12-29T14:49:17;13.70;97.60
3816;DHT22;1923;48.154;11.536;2022-12-29T14:51:48;13.60;97.70
3816;DHT22;1923;48.154;11.536;2022-12-29T14:54:48;13.50;97.90
3816;DHT22;1923;48.154;11.536;2022-12-29T14:57:27;13.50;97.90
3816;DHT22;1923;48.154;11.536;2022-12-29T15:00:01;13.50;98.30
3816;DHT22;1923;48.154;11.536;2022-12-29T15:02:34;13.50;97.00
3816;DHT22;1923;48.154;11.536;2022-12-29T15:05:10;13.50;96.30
3816;DHT22;1923;48.154;11.536;2022-12-29T15:07:49;13.50;96.20
3816;DHT22;1923;48.154;11.536;2022-12-29T15:10:18;13.30;96.00
3816;DHT22;1923;48.154;11.536;2022-12-29T15:12:52;13.20;95.90
3816;DHT22;1923;48.154;11.536;2022-12-29T15:15:22;13.30;95.60
3816;DHT22;1923;48.154;11.536;2022-12-29T15:17:51;13.20;95.00
3816;DHT22;1923;48.154;11.536;2022-12-29T15:20:25;13.20;94.80
3816;DHT22;1923;48.154;11.536;2022-12-29T15:22:56;13.10;94.90
3816;DHT22;1923;48.154;11.536;2022-12-29T15:25:25;13.10;94.00
3816;DHT22;1923;48.154;11.536;2022-12-29T15:27:55;13.00;93.90
3816;DHT22;1923;48.154;11.536;2022-12-29T15:30:25;12.90;94.40
3816;DHT22;1923;48.154;11.536;2022-12-29T15:32:53;12.90;93.60
3816;DHT22;1923;48.154;11.536;2022-12-29T15:35:27;12.70;93.80
3816;DHT22;1923;48.154;11.536;2022-12-29T15:37:58;12.60;94.20
3816;DHT22;1923;48.154;11.536;2022-12-29T15:40:29;12.50;94.20
3816;DHT22;1923;48.154;11.536;2022-12-29T15:43:14;12.50;94.80
3816;DHT22;1923;48.154;11.536;2022-12-29T15:45:44;12.40;94.50
3816;DHT22;1923;48.154;11.536;2022-12-29T15:48:16;12.40;94.70
3816;DHT22;1923;48.154;11.536;2022-12-29T15:50:46;12.30;94.60
3816;DHT22;1923;48.154;11.536;2022-12-29T15:53:19;12.40;96.00
3816;DHT22;1923;48.154;11.536;2022-12-29T15:55:57;12.30;94.70
3816;DHT22;1923;48.154;11.536;2022-12-29T15:58:30;12.20;94.70
3816;DHT22;1923;48.154;11.536;2022-12-29T16:01:00;12.20;95.10
3816;DHT22;1923;48.154;11.536;2022-12-29T16:03:31;12.20;94.90
3816;DHT22;1923;48.154;11.536;2022-12-29T16:06:09;12.00;95.00
3816;DHT22;1923;48.154;11.536;2022-12-29T16:08:40;12.00;95.20
3816;DHT22;1923;48.154;11.536;2022-12-29T16:11:20;12.10;95.10
3816;DHT22;1923;48.154;11.536;2022-12-29T16:13:49;12.00;95.00
3816;DHT22;1923;48.154;11.536;2022-12-29T16:16:21;11.90;94.80
3816;DHT22;1923;48.154;11.536;2022-12-29T16:18:53;11.90;95.20
3816;DHT22;1923;48.154;11.536;2022-12-29T16:21:26;12.00;95.50
3816;DHT22;1923;48.154;11.536;2022-12-29T16:24:00;11.90;95.80
3816;DHT22;1923;48.154;11.536;2022-12-29T16:26:29;12.00;95.70
3816;DHT22;1923;48.154;11.536;2022-12-29T16:28:58;12.00;96.00
3816;DHT22;1923;48.154;11.536;2022-12-29T16:31:34;12.00;95.90
3816;DHT22;1923;48.154;11.536;2022-12-29T16:34:12;11.90;96.40